Terminal Aerodrome Forecast
Issued by NWS

Home | Current Version | Previous Version | Graphics & Text | Print | Product List | Glossary On
Versions: 1 2 3 4 5 6 7 8 9 10 11 12 13
931
FTUS43 KMPX 231131
TAFRWF
TAF
KRWF 231131Z 2312/2412 31012G18KT P6SM FEW200
     FM231400 31015G23KT P6SM OVC045
     FM240100 28008KT P6SM SCT070=

USA.gov is the U.S. government's official web portal to all federal, state and local government web resources and services.